Pagrindinis puslapis
METAR-TAF:

METAR-TAF

Oro uostai :

Tin City, Aliaska, Jungtinės Amerikos Valstijos

platuma: 65-34N, ilguma: 167-55W, Aukštis: 83 m

Dabartinis oras

Ataskaita buvo paskelbta 58 minutes, ne 19:55 UTC
Vėjas 10 kt iš Šiaurės
Temperatūra -2°C
Drėgmė 93%
Slėgis 1022 hPa
Matomumas: 16.1 km
Išsisklaidę debesys ne aukštis 3100 ft

METAR: PATC 281955Z AUTO 01010KT 10SM SCT031 M02/M03 A3019 RMK AO2 SLP230 T10201034

Laikas: 12:53 (20:53 UTC)


TAF: trūkstamas

Orai ataskaitas ir orų prognozės (METAR, TAF).

turimą stotys yra geltonos ir raudonos taškus žemėlapyje.

Perkelti pele per norėdami pamatyti stoties vardą.

Tada spustelėkite, norėdami matyti oro stebėjimo ir prognozės.

Norėdami pakeisti žemėlapį: spustelėkite ant žalios mygtukų su juodo kryžiaus žemyn,; žalią mygtuką su brūkšneliu, jei norite nutolinti; arba žalių rodyklių gretimoms žemėlapius.


METAR-TAF: